Hardy, Nebraska
Current Conditions -  °F | °C
As of 6:55 AM on Friday 24 Oct 2014 (Local Time) from KHJH Reporting Station
Haze Haze  
Wind Chill: 57°   Ceiling: Unl
Heat Index: 57°   Visibility: 4mi
Dew Point: 55°   Wind: 3mph
Humidity: 92%   Direction: 220°SW
Pressure: 29.98"   Gusts: NA
Location:  40.01°N, 97.93°W
Report Text: KHJH 241155Z AUTO 22003KT 4SM BR CLR 14/13 A2998 RMK AO2 T01400127 10160 20140
Loading
Personal Weather Stations






























Interactive Weather Map
Tropical Storm Tracking
New forecast layout! Learn more

10-Day Weather Forecast

Advertisements
Track Severe Weather on mobile